Time;durP1;ratioP1;P1;durP2;ratioP2;P2;SDS_P1;SDS_P2;PMS_P1;PMS_P2;Temp;Humidity;BMP_temperature;BMP_pressure;BME280_temperature;BME280_humidity;BME280_pressure;Samples;Min_cycle;Max_cycle;Signal;HPM_P1;HPM_P2
2022/05/03 07:24:06;;;;;;;5.53;3.83;;;;;;;;;;4879304;29;20460;-81
2022/05/03 07:26:32;;;;;;;3.13;2.92;;;;;;;;;;4911454;29;20053;-82
2022/05/03 07:28:58;;;;;;;6.75;4.35;;;;;;;;;;4915272;29;20052;-82
2022/05/03 07:31:24;;;;;;;4.50;3.53;;;;;;;;;;4915203;29;20062;-81
2022/05/03 07:33:50;;;;;;;5.25;4.03;;;;;;;;;;4910615;29;20068;-82
2022/05/03 07:36:20;;;;;;;9.80;3.72;;;;;;;;;;4895990;29;20681;-81
2022/05/03 07:38:46;;;;;;;4.63;3.97;;;;;;;;;;4894392;29;20488;-81
2022/05/03 07:41:12;;;;;;;5.80;4.20;;;;;;;;;;4894885;29;20144;-82
2022/05/03 07:43:38;;;;;;;4.93;3.65;;;;;;;;;;4894801;29;20036;-81
2022/05/03 07:46:04;;;;;;;6.68;3.63;;;;;;;;;;4895331;29;20056;-81
2022/05/03 07:48:30;;;;;;;6.57;4.35;;;;;;;;;;4878967;29;20052;-82
2022/05/03 07:50:56;;;;;;;3.90;3.60;;;;;;;;;;4901073;29;20415;-82
2022/05/03 07:53:22;;;;;;;4.15;3.72;;;;;;;;;;4914652;29;20040;-81
2022/05/03 07:55:48;;;;;;;4.03;3.72;;;;;;;;;;4914956;29;20044;-81
2022/05/03 07:58:14;;;;;;;4.10;3.50;;;;;;;;;;4897556;29;20048;-82
2022/05/03 08:00:41;;;;;;;4.07;3.78;;;;;;;;;;4898332;29;20071;-81
2022/05/03 08:03:06;;;;;;;4.07;3.75;;;;;;;;;;4914611;29;20134;-79
2022/05/03 08:05:32;;;;;;;4.93;3.20;;;;;;;;;;4914864;29;20529;-81
2022/05/03 08:07:58;;;;;;;3.90;3.38;;;;;;;;;;4915015;29;20044;-81
2022/05/03 08:10:24;;;;;;;4.43;3.60;;;;;;;;;;4911529;29;20040;-81
2022/05/03 08:12:51;;;;;;;4.05;3.72;;;;;;;;;;4906349;29;20056;-82
2022/05/03 08:15:17;;;;;;;5.40;3.30;;;;;;;;;;4896236;29;20041;-82
2022/05/03 08:17:43;;;;;;;5.30;3.00;;;;;;;;;;4895713;29;20090;-81
2022/05/03 08:20:09;;;;;;;5.93;3.13;;;;;;;;;;4895797;29;20055;-81
2022/05/03 08:22:35;;;;;;;3.63;3.33;;;;;;;;;;4879251;29;20131;-83
2022/05/03 08:25:01;;;;;;;3.15;2.53;;;;;;;;;;4895954;29;20135;-82
2022/05/03 08:27:27;;;;;;;5.40;3.10;;;;;;;;;;4878307;29;20044;-82
2022/05/03 08:29:53;;;;;;;9.50;3.83;;;;;;;;;;4895980;29;20044;-81
2022/05/03 08:32:19;;;;;;;9.43;3.60;;;;;;;;;;4895350;29;20052;-82
2022/05/03 08:34:45;;;;;;;4.97;3.15;;;;;;;;;;4895157;29;20060;-82
2022/05/03 08:42:41;;;;;;;5.20;3.30;;;;;;;;;;4895243;29;20152;-82
2022/05/03 08:45:09;;;;;;;5.07;3.13;;;;;;;;;;4895085;29;20076;-83
2022/05/03 08:47:34;;;;;;;3.25;2.60;;;;;;;;;;4895317;29;20135;-82
2022/05/03 08:50:06;;;;;;;5.35;3.38;;;;;;;;;;4878701;29;20504;-82
2022/05/03 08:52:49;;;;;;;6.90;3.60;;;;;;;;;;4887137;29;20078;-81
2022/05/03 08:55:15;;;;;;;3.35;3.13;;;;;;;;;;4914011;29;20047;-82
2022/05/03 08:57:42;;;;;;;7.38;3.40;;;;;;;;;;4914781;29;20094;-81
2022/05/03 09:00:08;;;;;;;3.78;3.20;;;;;;;;;;4915363;29;20100;-81
2022/05/03 09:02:34;;;;;;;3.47;3.08;;;;;;;;;;4916961;29;20507;-81
2022/05/03 09:05:00;;;;;;;3.60;3.28;;;;;;;;;;4918187;29;20055;-82
2022/05/03 09:07:27;;;;;;;5.53;3.50;;;;;;;;;;4921548;29;20052;-82
2022/05/03 09:09:53;;;;;;;5.80;3.15;;;;;;;;;;4920414;29;20039;-82
2022/05/03 09:12:20;;;;;;;3.97;3.08;;;;;;;;;;4914093;29;20059;-82
2022/05/03 09:14:46;;;;;;;4.25;2.58;;;;;;;;;;4913973;29;20125;-82
2022/05/03 09:17:12;;;;;;;3.13;2.63;;;;;;;;;;4914612;29;20082;-84
2022/05/03 09:19:38;;;;;;;6.00;3.08;;;;;;;;;;4909928;29;20579;-84
2022/05/03 09:24:58;;;;;;;6.60;2.83;;;;;;;;;;4894781;29;20040;-81
2022/05/03 09:27:25;;;;;;;4.30;3.10;;;;;;;;;;4894709;29;20040;-81
2022/05/03 09:29:59;;;;;;;4.55;2.80;;;;;;;;;;4895286;29;20515;-82
2022/05/03 09:32:35;;;;;;;3.45;2.80;;;;;;;;;;4894864;29;20044;-81
2022/05/03 09:35:01;;;;;;;4.68;3.05;;;;;;;;;;4894798;29;20048;-82
2022/05/03 09:37:37;;;;;;;3.35;2.88;;;;;;;;;;4895128;29;20132;-81
2022/05/03 09:40:03;;;;;;;8.82;3.00;;;;;;;;;;4895500;29;20048;-83
2022/05/03 09:42:29;;;;;;;8.98;3.20;;;;;;;;;;4878524;29;20056;-82
2022/05/03 09:44:57;;;;;;;6.32;2.75;;;;;;;;;;4897042;29;20177;-82
2022/05/03 09:47:23;;;;;;;3.50;3.13;;;;;;;;;;4897017;29;20257;-83
2022/05/03 09:49:49;;;;;;;4.50;3.00;;;;;;;;;;4879416;29;20055;-80
2022/05/03 09:52:36;;;;;;;7.95;3.03;;;;;;;;;;4896444;29;20041;-81
2022/05/03 09:55:06;;;;;;;3.20;3.00;;;;;;;;;;4901563;29;20174;-82
2022/05/03 09:57:39;;;;;;;3.17;2.88;;;;;;;;;;4902398;29;20048;-81
2022/05/03 10:00:08;;;;;;;4.47;3.00;;;;;;;;;;4900173;29;20040;-82
2022/05/03 10:02:40;;;;;;;3.88;3.20;;;;;;;;;;4880058;29;20044;-83
2022/05/03 10:05:06;;;;;;;5.18;3.13;;;;;;;;;;4880466;29;20084;-82
2022/05/03 10:07:32;;;;;;;3.83;2.50;;;;;;;;;;4879831;29;20064;-83
2022/05/03 10:09:58;;;;;;;3.08;2.80;;;;;;;;;;4895938;29;20625;-82
2022/05/03 10:12:24;;;;;;;4.35;2.90;;;;;;;;;;4893516;29;20072;-83
2022/05/03 10:14:50;;;;;;;5.40;2.30;;;;;;;;;;4892874;29;20411;-82
2022/05/03 10:20:40;;;;;;;2.75;2.60;;;;;;;;;;4892529;29;20044;-82
2022/05/03 10:23:19;;;;;;;3.25;2.97;;;;;;;;;;4878131;29;20188;-82
2022/05/03 10:25:46;;;;;;;5.82;3.03;;;;;;;;;;4896311;29;20055;-83
2022/05/03 10:28:12;;;;;;;3.25;2.42;;;;;;;;;;4895783;29;20108;-83
2022/05/03 10:30:39;;;;;;;2.95;2.72;;;;;;;;;;4894973;29;20044;-83
2022/05/03 10:33:20;;;;;;;2.88;2.42;;;;;;;;;;4896103;29;20053;-82
2022/05/03 10:35:46;;;;;;;5.88;3.00;;;;;;;;;;4881879;29;20108;-83
2022/05/03 10:38:12;;;;;;;2.83;2.60;;;;;;;;;;4881581;29;20092;-82
2022/05/03 10:40:45;;;;;;;5.60;2.67;;;;;;;;;;4896271;29;20098;-82
2022/05/03 10:43:11;;;;;;;2.25;2.15;;;;;;;;;;4880481;29;20067;-82
2022/05/03 10:45:53;;;;;;;2.30;2.20;;;;;;;;;;4880475;29;20040;-83
2022/05/03 10:48:29;;;;;;;3.15;2.90;;;;;;;;;;4875399;29;20666;-83
2022/05/03 10:51:02;;;;;;;3.67;2.63;;;;;;;;;;4881121;29;20114;-82
2022/05/03 10:53:28;;;;;;;2.65;2.45;;;;;;;;;;4883046;29;20049;-82
2022/05/03 10:56:01;;;;;;;6.30;2.58;;;;;;;;;;4912871;29;20357;-81
2022/05/03 10:58:31;;;;;;;3.50;2.50;;;;;;;;;;4897944;29;20554;-82
2022/05/03 11:01:17;;;;;;;2.45;2.25;;;;;;;;;;4897488;29;20075;-82
2022/05/03 11:03:54;;;;;;;6.18;2.85;;;;;;;;;;4896118;29;20085;-79
2022/05/03 11:06:21;;;;;;;2.83;2.63;;;;;;;;;;4895674;29;20107;-82
2022/05/03 11:08:57;;;;;;;2.40;2.25;;;;;;;;;;4896664;29;20433;-82
2022/05/03 11:11:47;;;;;;;5.80;2.78;;;;;;;;;;4896099;29;20044;-81
2022/05/03 11:16:44;;;;;;;2.58;2.42;;;;;;;;;;4877889;29;20047;-81
2022/05/03 11:19:23;;;;;;;7.88;2.00;;;;;;;;;;4894001;29;20045;-81
2022/05/03 11:21:49;;;;;;;2.78;2.45;;;;;;;;;;4896578;29;20040;-81
2022/05/03 11:24:16;;;;;;;3.30;2.55;;;;;;;;;;4896265;29;20080;-81
2022/05/03 11:26:42;;;;;;;2.65;2.10;;;;;;;;;;4894929;29;20040;-82
2022/05/03 11:29:07;;;;;;;4.68;2.70;;;;;;;;;;4895160;29;20047;-81
2022/05/03 11:31:33;;;;;;;6.38;2.03;;;;;;;;;;4894573;29;20055;-81
2022/05/03 11:33:59;;;;;;;2.22;2.00;;;;;;;;;;4895303;29;20056;-83
2022/05/03 11:36:26;;;;;;;3.90;2.20;;;;;;;;;;4876855;29;20507;-81
2022/05/03 11:38:55;;;;;;;5.00;2.10;;;;;;;;;;4892303;29;20524;-81
2022/05/03 11:41:21;;;;;;;7.30;1.80;;;;;;;;;;4899319;29;20170;-83
2022/05/03 11:43:48;;;;;;;2.60;2.40;;;;;;;;;;4891690;29;20048;-83
2022/05/03 11:46:17;;;;;;;2.40;2.20;;;;;;;;;;4904593;29;20044;-84
2022/05/03 11:48:43;;;;;;;2.45;2.13;;;;;;;;;;4908909;29;20041;-83
2022/05/03 11:56:44;;;;;;;3.50;2.10;;;;;;;;;;4909182;29;20116;-84
2022/05/03 11:59:10;;;;;;;5.53;1.92;;;;;;;;;;4898481;29;20143;-80
2022/05/03 12:01:35;;;;;;;5.60;2.55;;;;;;;;;;4896180;29;20139;-83
2022/05/03 12:04:02;;;;;;;4.43;2.33;;;;;;;;;;4897746;29;20052;-82
2022/05/03 12:06:48;;;;;;;7.63;2.13;;;;;;;;;;4880837;29;20048;-82
2022/05/03 12:09:17;;;;;;;4.90;2.50;;;;;;;;;;4896809;29;20048;-84
2022/05/03 12:14:37;;;;;;;2.70;2.10;;;;;;;;;;4903713;29;20456;-81
2022/05/03 12:17:04;;;;;;;3.83;2.10;;;;;;;;;;4908645;29;20048;-83
2022/05/03 12:19:36;;;;;;;4.45;2.58;;;;;;;;;;4900262;29;20064;-85
2022/05/03 12:22:08;;;;;;;6.95;3.03;;;;;;;;;;4915806;29;20040;-86
2022/05/03 12:24:35;;;;;;;2.10;1.90;;;;;;;;;;4908241;29;20045;-84
2022/05/03 12:27:11;;;;;;;3.60;1.83;;;;;;;;;;4859810;29;20401;-84
2022/05/03 12:29:47;;;;;;;2.67;2.10;;;;;;;;;;4880875;29;20044;-83
2022/05/03 12:32:14;;;;;;;6.65;2.45;;;;;;;;;;4895512;29;20045;-83
2022/05/03 12:34:41;;;;;;;2.67;2.47;;;;;;;;;;4896139;29;20044;-84
2022/05/03 12:37:08;;;;;;;10.45;2.22;;;;;;;;;;4880401;29;20036;-82
2022/05/03 12:39:35;;;;;;;2.13;1.95;;;;;;;;;;4892566;29;20469;-81
2022/05/03 12:42:14;;;;;;;4.38;1.92;;;;;;;;;;4854377;29;20049;-83
2022/05/03 12:44:47;;;;;;;1.93;1.83;;;;;;;;;;4892910;29;20049;-73
2022/05/03 12:47:13;;;;;;;7.38;1.92;;;;;;;;;;4892410;29;20532;-73
2022/05/03 12:49:39;;;;;;;4.50;2.00;;;;;;;;;;4893247;29;20072;-80
2022/05/03 12:52:05;;;;;;;2.00;1.90;;;;;;;;;;4891355;29;20048;-77
2022/05/03 12:54:37;;;;;;;4.80;2.50;;;;;;;;;;4892870;29;20048;-79
2022/05/03 13:00:11;;;;;;;3.05;2.10;;;;;;;;;;4828025;29;20046;-77
2022/05/03 13:02:38;;;;;;;2.43;1.87;;;;;;;;;;4835079;29;20094;-77
2022/05/03 13:05:04;;;;;;;2.97;1.60;;;;;;;;;;4864117;29;20045;-76
2022/05/03 13:07:31;;;;;;;2.30;2.10;;;;;;;;;;4887702;29;20111;-78
2022/05/03 13:09:57;;;;;;;2.97;2.25;;;;;;;;;;4898415;29;20064;-76
2022/05/03 13:12:23;;;;;;;3.60;2.03;;;;;;;;;;4882730;29;20056;-77
2022/05/03 13:14:48;;;;;;;2.10;2.00;;;;;;;;;;4894695;29;20048;-78
2022/05/03 13:17:14;;;;;;;6.60;1.85;;;;;;;;;;4893257;29;20052;-78
2022/05/03 13:19:41;;;;;;;2.90;2.60;;;;;;;;;;4891401;29;20147;-78
2022/05/03 13:22:07;;;;;;;5.63;2.35;;;;;;;;;;4892804;29;20032;-78
2022/05/03 13:24:33;;;;;;;2.35;2.15;;;;;;;;;;4891885;29;20056;-77
2022/05/03 13:26:58;;;;;;;2.10;1.90;;;;;;;;;;4870608;29;20786;-79
2022/05/03 13:29:24;;;;;;;4.15;1.85;;;;;;;;;;4892146;29;20036;-80
2022/05/03 13:31:51;;;;;;;3.45;2.00;;;;;;;;;;4874869;29;20055;-77
2022/05/03 13:34:16;;;;;;;2.67;1.70;;;;;;;;;;4891258;29;20104;-77
2022/05/03 13:42:11;;;;;;;11.57;2.03;;;;;;;;;;4874532;29;20049;-77
2022/05/03 13:44:37;;;;;;;2.10;2.00;;;;;;;;;;4891133;29;20126;-76
2022/05/03 13:47:04;;;;;;;5.05;2.33;;;;;;;;;;4870929;29;20075;-77
2022/05/03 13:49:30;;;;;;;1.80;1.50;;;;;;;;;;4888898;29;20044;-78
2022/05/03 13:51:56;;;;;;;3.92;1.80;;;;;;;;;;4891691;29;20043;-77
2022/05/03 13:54:21;;;;;;;2.70;1.60;;;;;;;;;;4891406;29;20044;-77
2022/05/03 13:56:47;;;;;;;2.08;1.88;;;;;;;;;;4873784;29;20044;-79
2022/05/03 13:59:13;;;;;;;3.53;1.90;;;;;;;;;;4891395;29;20734;-78
2022/05/03 14:01:39;;;;;;;2.83;2.20;;;;;;;;;;4891286;29;20081;-78
2022/05/03 14:04:05;;;;;;;1.90;1.80;;;;;;;;;;4891804;29;20041;-78
2022/05/03 14:06:31;;;;;;;4.88;2.28;;;;;;;;;;4874600;29;20045;-79
2022/05/03 14:08:57;;;;;;;4.50;2.10;;;;;;;;;;4891132;29;20131;-79
2022/05/03 14:11:23;;;;;;;3.05;1.77;;;;;;;;;;4874416;29;20715;-76
2022/05/03 14:13:49;;;;;;;1.48;1.38;;;;;;;;;;4890524;29;20519;-75
2022/05/03 14:16:16;;;;;;;5.05;1.83;;;;;;;;;;4891879;29;20040;-76
2022/05/03 14:18:46;;;;;;;2.03;1.92;;;;;;;;;;4888831;29;20086;-76
2022/05/03 14:21:12;;;;;;;3.00;2.08;;;;;;;;;;4888014;29;20061;-74
2022/05/03 14:23:39;;;;;;;2.30;2.10;;;;;;;;;;4889978;29;20056;-76
2022/05/03 14:26:06;;;;;;;2.47;1.90;;;;;;;;;;4889655;29;20135;-75
2022/05/03 14:28:32;;;;;;;9.75;1.70;;;;;;;;;;4889058;29;20508;-77
2022/05/03 14:30:58;;;;;;;2.20;2.00;;;;;;;;;;4877503;29;20097;-77
2022/05/03 14:33:24;;;;;;;3.00;1.88;;;;;;;;;;4888679;29;20199;-77
2022/05/03 14:35:50;;;;;;;2.38;1.70;;;;;;;;;;4874787;29;20504;-76
2022/05/03 14:38:16;;;;;;;2.22;2.00;;;;;;;;;;4874482;29;20057;-76
2022/05/03 14:40:42;;;;;;;8.43;1.95;;;;;;;;;;4874109;29;20041;-76
2022/05/03 14:43:09;;;;;;;3.67;2.17;;;;;;;;;;4889733;29;20071;-76
2022/05/03 14:45:35;;;;;;;2.63;2.22;;;;;;;;;;4888282;29;20516;-77
2022/05/03 14:48:01;;;;;;;2.00;1.73;;;;;;;;;;4890209;29;20556;-78
2022/05/03 14:50:28;;;;;;;7.25;2.00;;;;;;;;;;4869115;29;20048;-77
2022/05/03 14:52:54;;;;;;;4.15;1.80;;;;;;;;;;4874579;29;20053;-75
2022/05/03 14:55:20;;;;;;;10.02;2.40;;;;;;;;;;4874937;29;20044;-77
2022/05/03 15:03:14;;;;;;;7.97;1.95;;;;;;;;;;4876876;29;20052;-75
2022/05/03 15:05:40;;;;;;;3.38;1.75;;;;;;;;;;4898579;29;20045;-76
2022/05/03 15:08:07;;;;;;;6.85;2.15;;;;;;;;;;4897023;29;20057;-76
2022/05/03 15:10:32;;;;;;;4.82;1.90;;;;;;;;;;4890733;29;20083;-75
2022/05/03 15:13:02;;;;;;;3.65;1.80;;;;;;;;;;4891586;29;20045;-77
2022/05/03 15:15:29;;;;;;;6.43;2.05;;;;;;;;;;4890912;29;20097;-78
2022/05/03 15:17:54;;;;;;;3.05;1.90;;;;;;;;;;4891042;29;20057;-77
2022/05/03 15:20:21;;;;;;;1.35;1.33;;;;;;;;;;4893895;29;20079;-76
2022/05/03 15:25:31;;;;;;;6.72;1.90;;;;;;;;;;4893491;29;20048;-79
2022/05/03 15:27:58;;;;;;;1.75;1.52;;;;;;;;;;4877202;29;20132;-78
2022/05/03 15:30:24;;;;;;;4.55;1.98;;;;;;;;;;4862273;29;20051;-76
2022/05/03 15:32:49;;;;;;;3.60;2.25;;;;;;;;;;4893407;29;20044;-76
2022/05/03 15:35:15;;;;;;;6.57;1.98;;;;;;;;;;4893280;29;20040;-77
2022/05/03 15:37:41;;;;;;;6.07;2.15;;;;;;;;;;4892990;29;20052;-76
2022/05/03 15:40:08;;;;;;;1.77;1.67;;;;;;;;;;4876032;29;20052;-76
2022/05/03 15:42:34;;;;;;;10.10;2.20;;;;;;;;;;4892378;29;20101;-77
2022/05/03 15:45:00;;;;;;;5.47;1.80;;;;;;;;;;4861038;29;20060;-76
2022/05/03 15:47:27;;;;;;;1.80;1.70;;;;;;;;;;4893639;29;20080;-76
2022/05/03 15:49:53;;;;;;;4.15;2.00;;;;;;;;;;4894186;29;20044;-77
2022/05/03 15:52:19;;;;;;;3.72;2.10;;;;;;;;;;4891351;29;20047;-77
2022/05/03 15:54:45;;;;;;;2.95;2.10;;;;;;;;;;4893500;29;20051;-76
2022/05/03 15:57:11;;;;;;;2.17;1.98;;;;;;;;;;4894511;29;20047;-76
2022/05/03 15:59:37;;;;;;;2.22;2.13;;;;;;;;;;4892076;29;20072;-78
2022/05/03 16:02:07;;;;;;;1.95;1.85;;;;;;;;;;4894049;29;20040;-78
2022/05/03 16:04:33;;;;;;;3.42;2.00;;;;;;;;;;4876686;29;20440;-79
2022/05/03 16:06:59;;;;;;;5.88;2.25;;;;;;;;;;4894082;29;20631;-78
2022/05/03 16:09:25;;;;;;;2.47;2.30;;;;;;;;;;4894041;29;20056;-77
2022/05/03 16:11:51;;;;;;;5.85;2.13;;;;;;;;;;4875169;29;20223;-79
2022/05/03 16:14:18;;;;;;;3.50;2.20;;;;;;;;;;4891479;29;20210;-78
2022/05/03 16:16:44;;;;;;;2.05;1.90;;;;;;;;;;4893250;29;20570;-78
2022/05/03 16:19:09;;;;;;;2.10;1.90;;;;;;;;;;4892213;29;20060;-76
2022/05/03 16:21:35;;;;;;;2.70;2.50;;;;;;;;;;4894117;29;20079;-76
2022/05/03 16:24:01;;;;;;;7.22;2.50;;;;;;;;;;4893330;29;20163;-76
2022/05/03 16:26:27;;;;;;;2.80;2.60;;;;;;;;;;4893727;29;20036;-76
2022/05/03 16:28:53;;;;;;;3.58;1.85;;;;;;;;;;4893338;29;20041;-72
2022/05/03 16:31:22;;;;;;;11.88;2.85;;;;;;;;;;4873881;29;20048;-72
2022/05/03 16:33:54;;;;;;;2.20;2.00;;;;;;;;;;4892069;29;20049;-72
2022/05/03 16:42:10;;;;;;;4.93;2.05;;;;;;;;;;4890943;29;20040;-72
2022/05/03 16:44:37;;;;;;;2.55;2.35;;;;;;;;;;4892934;29;20056;-72
2022/05/03 16:47:04;;;;;;;3.10;2.38;;;;;;;;;;4890614;29;20041;-71
2022/05/03 16:49:30;;;;;;;2.33;2.22;;;;;;;;;;4891909;29;20049;-72
2022/05/03 16:51:58;;;;;;;3.08;2.78;;;;;;;;;;4874917;29;20479;-71
2022/05/03 16:54:25;;;;;;;6.97;4.60;;;;;;;;;;4892663;29;20056;-71
2022/05/03 16:56:51;;;;;;;4.57;3.67;;;;;;;;;;4891479;29;20037;-71
2022/05/03 16:59:17;;;;;;;3.45;2.35;;;;;;;;;;4892607;29;20054;-71
2022/05/03 17:01:43;;;;;;;2.83;2.63;;;;;;;;;;4891067;29;20475;-71
2022/05/03 17:04:10;;;;;;;7.50;2.40;;;;;;;;;;4874603;29;20044;-71
2022/05/03 17:06:37;;;;;;;2.00;1.90;;;;;;;;;;4891764;29;20060;-71
2022/05/03 17:09:03;;;;;;;4.57;1.95;;;;;;;;;;4891049;29;20076;-73
2022/05/03 17:11:28;;;;;;;5.95;2.28;;;;;;;;;;4889977;29;20032;-71
2022/05/03 17:13:54;;;;;;;4.47;2.83;;;;;;;;;;4890259;29;20051;-70
2022/05/03 17:16:20;;;;;;;2.72;2.45;;;;;;;;;;4888844;29;20113;-72
2022/05/03 17:18:46;;;;;;;3.63;3.20;;;;;;;;;;4873785;29;20060;-71
2022/05/03 17:21:12;;;;;;;8.85;5.10;;;;;;;;;;4895549;29;20053;-71
2022/05/03 17:23:38;;;;;;;5.45;3.67;;;;;;;;;;4892409;29;20076;-71
2022/05/03 17:26:05;;;;;;;3.85;3.38;;;;;;;;;;4889808;29;20067;-71
2022/05/03 17:28:31;;;;;;;3.00;2.78;;;;;;;;;;4890868;29;20059;-70
2022/05/03 17:30:58;;;;;;;4.88;3.15;;;;;;;;;;4891608;29;20105;-71
2022/05/03 17:33:24;;;;;;;3.35;2.80;;;;;;;;;;4891045;29;20132;-71
2022/05/03 17:35:50;;;;;;;6.88;2.85;;;;;;;;;;4876613;29;20048;-71
2022/05/03 17:38:16;;;;;;;4.25;3.85;;;;;;;;;;4891613;29;20052;-71
2022/05/03 17:40:42;;;;;;;3.90;3.50;;;;;;;;;;4890809;29;20571;-71
2022/05/03 17:43:08;;;;;;;4.53;3.47;;;;;;;;;;4874378;29;20423;-71
2022/05/03 17:45:34;;;;;;;3.78;3.47;;;;;;;;;;4891661;29;20041;-71
2022/05/03 17:48:00;;;;;;;10.02;3.17;;;;;;;;;;4874994;29;20040;-71
2022/05/03 17:50:27;;;;;;;7.15;3.08;;;;;;;;;;4890615;29;20077;-71
2022/05/03 17:55:37;;;;;;;3.28;3.08;;;;;;;;;;4891321;29;20756;-71
2022/05/03 17:58:03;;;;;;;2.97;2.55;;;;;;;;;;4889753;29;20123;-71
2022/05/03 18:00:30;;;;;;;3.15;2.95;;;;;;;;;;4891574;29;20081;-71
2022/05/03 18:02:56;;;;;;;6.15;3.00;;;;;;;;;;4890713;29;20044;-71
2022/05/03 18:05:23;;;;;;;7.68;3.47;;;;;;;;;;4892020;29;20040;-70
2022/05/03 18:07:51;;;;;;;2.85;2.63;;;;;;;;;;4891613;29;20710;-71
2022/05/03 18:10:17;;;;;;;5.43;3.30;;;;;;;;;;4891906;29;20040;-71
2022/05/03 18:12:43;;;;;;;3.05;2.85;;;;;;;;;;4891640;29;20055;-71
2022/05/03 18:15:09;;;;;;;3.47;2.95;;;;;;;;;;4890347;29;20151;-71
2022/05/03 18:17:36;;;;;;;6.28;3.08;;;;;;;;;;4891254;29;20059;-71
2022/05/03 18:20:03;;;;;;;2.97;2.65;;;;;;;;;;4871738;29;20052;-71
2022/05/03 18:22:28;;;;;;;4.25;3.25;;;;;;;;;;4873056;29;20488;-71
2022/05/03 18:24:54;;;;;;;4.35;3.08;;;;;;;;;;4895047;29;20071;-71
2022/05/03 18:27:20;;;;;;;2.78;2.60;;;;;;;;;;4874987;29;20044;-72
2022/05/03 18:29:48;;;;;;;5.95;3.00;;;;;;;;;;4892011;29;20127;-72
2022/05/03 18:32:14;;;;;;;5.53;3.10;;;;;;;;;;4892277;29;20053;-72
2022/05/03 18:34:39;;;;;;;7.95;3.50;;;;;;;;;;4891411;29;20036;-72
2022/05/03 18:37:05;;;;;;;2.78;2.58;;;;;;;;;;4891646;29;20507;-72
2022/05/03 18:39:31;;;;;;;4.35;3.28;;;;;;;;;;4894612;29;20121;-72
2022/05/03 18:41:58;;;;;;;7.32;2.80;;;;;;;;;;4872469;29;20048;-72
2022/05/03 18:44:25;;;;;;;3.30;2.70;;;;;;;;;;4891779;29;20056;-71
2022/05/03 18:46:51;;;;;;;2.45;2.25;;;;;;;;;;4891848;29;20419;-72
2022/05/03 18:49:17;;;;;;;3.28;3.05;;;;;;;;;;4890521;29;20055;-72
2022/05/03 18:51:43;;;;;;;5.85;3.30;;;;;;;;;;4891069;29;20052;-72
2022/05/03 18:56:53;;;;;;;5.45;3.17;;;;;;;;;;4895698;29;20044;-72
2022/05/03 18:59:19;;;;;;;3.10;2.90;;;;;;;;;;4895081;29;20056;-72
2022/05/03 19:01:47;;;;;;;22.85;3.05;;;;;;;;;;4894740;29;20128;-73
2022/05/03 19:04:14;;;;;;;14.68;2.88;;;;;;;;;;4877728;29;20041;-72
2022/05/03 19:06:40;;;;;;;7.88;2.50;;;;;;;;;;4893476;29;20079;-72
2022/05/03 19:09:05;;;;;;;5.75;2.92;;;;;;;;;;4893538;29;20578;-72
2022/05/03 19:11:33;;;;;;;6.85;2.80;;;;;;;;;;4894503;29;20083;-72
2022/05/03 19:14:00;;;;;;;10.10;2.60;;;;;;;;;;4892962;29;20036;-72
2022/05/03 19:16:27;;;;;;;11.82;4.60;;;;;;;;;;4893210;29;20422;-73
2022/05/03 19:18:53;;;;;;;5.00;2.22;;;;;;;;;;4881789;29;20056;-72
2022/05/03 19:21:19;;;;;;;10.25;2.75;;;;;;;;;;4895085;29;20063;-72
2022/05/03 19:31:58;;;;;;;4.47;2.65;;;;;;;;;;4893409;29;20040;-72
2022/05/03 19:34:26;;;;;;;3.22;2.55;;;;;;;;;;4896154;29;20105;-74
2022/05/03 19:36:52;;;;;;;4.60;2.35;;;;;;;;;;4895767;29;20040;-72
2022/05/03 19:39:18;;;;;;;4.28;3.03;;;;;;;;;;4895633;29;20063;-72
2022/05/03 19:41:44;;;;;;;2.95;2.63;;;;;;;;;;4894864;29;20428;-72
2022/05/03 19:44:10;;;;;;;7.28;2.75;;;;;;;;;;4893810;29;20368;-72
2022/05/03 19:46:36;;;;;;;5.90;2.50;;;;;;;;;;4878556;29;20048;-72
2022/05/03 19:49:02;;;;;;;3.35;2.80;;;;;;;;;;4894354;29;20048;-73
2022/05/03 19:51:28;;;;;;;3.72;3.13;;;;;;;;;;4896360;29;20508;-74
2022/05/03 19:53:54;;;;;;;2.95;2.33;;;;;;;;;;4895259;29;20044;-74
2022/05/03 19:56:20;;;;;;;3.92;2.88;;;;;;;;;;4898131;29;20508;-75
2022/05/03 19:58:46;;;;;;;3.30;3.00;;;;;;;;;;4894374;29;20053;-73
2022/05/03 20:01:12;;;;;;;5.72;3.25;;;;;;;;;;4878059;29;20052;-74
2022/05/03 20:03:38;;;;;;;5.70;2.65;;;;;;;;;;4877863;29;20040;-75
2022/05/03 20:06:03;;;;;;;3.95;2.90;;;;;;;;;;4896189;29;20519;-74
2022/05/03 20:08:35;;;;;;;3.13;2.83;;;;;;;;;;4895336;29;20589;-74
2022/05/03 20:11:02;;;;;;;4.25;2.83;;;;;;;;;;4893374;29;20047;-74
2022/05/03 20:13:28;;;;;;;4.35;2.38;;;;;;;;;;4894060;29;20404;-74
2022/05/03 20:15:54;;;;;;;4.93;2.85;;;;;;;;;;4895048;29;20067;-74
2022/05/03 20:18:20;;;;;;;5.45;2.58;;;;;;;;;;4894478;29;20106;-73
2022/05/03 20:20:47;;;;;;;3.00;2.70;;;;;;;;;;4894211;29;20048;-75
2022/05/03 20:23:13;;;;;;;3.05;2.30;;;;;;;;;;4894849;29;20044;-75
2022/05/03 20:25:39;;;;;;;6.00;2.60;;;;;;;;;;4895890;29;20053;-79
2022/05/03 20:28:06;;;;;;;4.47;3.53;;;;;;;;;;4879759;29;20086;-81
2022/05/03 20:30:32;;;;;;;2.75;2.55;;;;;;;;;;4880391;29;20427;-80
2022/05/03 20:32:58;;;;;;;4.40;2.65;;;;;;;;;;4898960;29;20068;-80
2022/05/03 20:35:24;;;;;;;2.70;2.47;;;;;;;;;;4880324;29;20076;-79
2022/05/03 20:37:50;;;;;;;5.20;2.75;;;;;;;;;;4863552;29;20064;-79
2022/05/03 20:40:16;;;;;;;5.10;2.70;;;;;;;;;;4896326;29;20116;-80
2022/05/03 20:42:42;;;;;;;4.00;2.20;;;;;;;;;;4896169;29;20049;-79
2022/05/03 20:45:08;;;;;;;1.90;1.80;;;;;;;;;;4895748;29;20131;-77
2022/05/03 20:50:19;;;;;;;2.50;1.70;;;;;;;;;;4880686;29;20511;-78
2022/05/03 20:52:45;;;;;;;3.08;2.35;;;;;;;;;;4894712;29;20040;-78
2022/05/03 20:55:11;;;;;;;2.75;2.20;;;;;;;;;;4895544;29;20056;-78
2022/05/03 20:57:38;;;;;;;2.75;2.15;;;;;;;;;;4880845;29;20045;-79
2022/05/03 21:00:05;;;;;;;3.28;2.03;;;;;;;;;;4878158;29;20045;-78
2022/05/03 21:02:31;;;;;;;1.95;1.85;;;;;;;;;;4879033;29;20040;-79
2022/05/03 21:04:58;;;;;;;3.35;2.22;;;;;;;;;;4878671;29;20082;-78
2022/05/03 21:07:23;;;;;;;4.03;1.98;;;;;;;;;;4894924;29;20100;-79
2022/05/03 21:09:50;;;;;;;2.03;1.92;;;;;;;;;;4894754;29;20530;-79
2022/05/03 21:12:16;;;;;;;5.03;2.22;;;;;;;;;;4897486;29;20040;-79
2022/05/03 21:14:42;;;;;;;2.83;2.55;;;;;;;;;;4895312;29;20052;-79
2022/05/03 21:17:08;;;;;;;3.58;2.60;;;;;;;;;;4894651;29;20103;-77
2022/05/03 21:19:35;;;;;;;2.90;2.55;;;;;;;;;;4895103;29;20086;-78
2022/05/03 21:22:02;;;;;;;3.58;2.90;;;;;;;;;;4895300;29;20047;-77
2022/05/03 21:24:28;;;;;;;3.13;2.83;;;;;;;;;;4895232;29;20055;-76
2022/05/03 21:26:54;;;;;;;3.22;2.97;;;;;;;;;;4895213;29;20041;-78
2022/05/03 21:29:20;;;;;;;3.65;2.75;;;;;;;;;;4861597;29;20068;-77
2022/05/03 21:31:46;;;;;;;4.50;2.45;;;;;;;;;;4895048;29;20105;-79
2022/05/03 21:34:12;;;;;;;2.53;2.33;;;;;;;;;;4878563;29;20084;-78
2022/05/03 21:36:38;;;;;;;4.47;2.38;;;;;;;;;;4894418;29;20127;-78
2022/05/03 21:39:04;;;;;;;2.45;2.25;;;;;;;;;;4862772;29;20071;-79
2022/05/03 21:41:31;;;;;;;2.30;2.10;;;;;;;;;;4894677;29;20040;-78
2022/05/03 21:43:56;;;;;;;5.88;2.15;;;;;;;;;;4894906;29;20064;-78
2022/05/03 21:46:22;;;;;;;4.25;2.40;;;;;;;;;;4895050;29;20114;-78
2022/05/03 21:48:48;;;;;;;5.78;2.72;;;;;;;;;;4892966;29;20051;-77
2022/05/03 21:51:14;;;;;;;3.30;2.40;;;;;;;;;;4895180;29;20128;-77
2022/05/03 21:53:40;;;;;;;2.50;2.28;;;;;;;;;;4894880;29;20113;-78
2022/05/03 21:56:06;;;;;;;3.55;2.20;;;;;;;;;;4895033;29;20045;-78
2022/05/03 21:58:34;;;;;;;1.90;1.80;;;;;;;;;;4894727;29;20064;-76
2022/05/03 22:01:00;;;;;;;2.20;2.10;;;;;;;;;;4894588;29;20047;-76
2022/05/03 22:03:26;;;;;;;5.68;2.08;;;;;;;;;;4877912;29;20141;-78
2022/05/03 22:05:52;;;;;;;3.22;2.00;;;;;;;;;;4877974;29;20046;-78
2022/05/03 22:08:18;;;;;;;2.38;1.90;;;;;;;;;;4894428;29;20052;-78
2022/05/03 22:10:44;;;;;;;4.15;2.13;;;;;;;;;;4894111;29;20534;-78
2022/05/03 22:13:10;;;;;;;3.55;2.15;;;;;;;;;;4895926;29;20053;-78
2022/05/03 22:15:37;;;;;;;4.43;2.08;;;;;;;;;;4895570;29;20127;-78
2022/05/03 22:18:03;;;;;;;7.93;2.40;;;;;;;;;;4894281;29;20732;-77
2022/05/03 22:20:29;;;;;;;2.92;2.35;;;;;;;;;;4877747;29;20180;-77
2022/05/03 22:22:58;;;;;;;2.70;2.40;;;;;;;;;;4894430;29;20170;-76
2022/05/03 22:25:24;;;;;;;2.25;2.10;;;;;;;;;;4878296;29;20060;-78
2022/05/03 22:27:50;;;;;;;3.53;1.88;;;;;;;;;;4894508;29;20040;-79
2022/05/03 22:30:18;;;;;;;2.15;2.05;;;;;;;;;;4881912;29;20048;-79
2022/05/03 22:32:45;;;;;;;2.00;1.90;;;;;;;;;;4882283;29;20063;-79
2022/05/03 22:35:11;;;;;;;2.20;2.00;;;;;;;;;;4881655;29;20055;-78
2022/05/03 22:37:36;;;;;;;2.88;2.67;;;;;;;;;;4898527;29;20044;-79
2022/05/03 22:40:03;;;;;;;2.65;2.08;;;;;;;;;;4898655;29;20056;-79
2022/05/03 22:42:33;;;;;;;2.17;1.98;;;;;;;;;;4866576;29;20071;-78
2022/05/03 22:45:03;;;;;;;2.38;2.20;;;;;;;;;;4898346;29;20049;-79
2022/05/03 22:47:29;;;;;;;2.40;2.20;;;;;;;;;;4881717;29;20053;-77
2022/05/03 22:49:55;;;;;;;1.90;1.80;;;;;;;;;;4897825;29;20043;-78
2022/05/03 22:52:21;;;;;;;2.03;1.92;;;;;;;;;;4881606;29;20139;-77
2022/05/03 22:54:47;;;;;;;1.60;1.50;;;;;;;;;;4898896;29;20045;-77
2022/05/03 22:57:13;;;;;;;1.92;1.83;;;;;;;;;;4901421;29;20052;-79
2022/05/03 22:59:39;;;;;;;3.17;2.13;;;;;;;;;;4898325;29;20516;-80
2022/05/03 23:02:05;;;;;;;2.15;1.95;;;;;;;;;;4897613;29;20047;-79
2022/05/03 23:04:31;;;;;;;2.17;2.08;;;;;;;;;;4898265;29;20132;-78
2022/05/03 23:06:57;;;;;;;2.58;2.13;;;;;;;;;;4898265;29;20039;-78